createdAt,value
2018-08-22T00:01:38.853Z,26.65
2018-08-22T00:04:07.998Z,29.23
2018-08-22T00:06:37.306Z,24.98
2018-08-22T00:09:07.927Z,25.95
2018-08-22T00:11:36.792Z,25.02
2018-08-22T00:14:05.665Z,30.25
2018-08-22T00:16:34.475Z,32.38
2018-08-22T00:19:03.285Z,31.55
2018-08-22T00:21:32.104Z,30.92
2018-08-22T00:24:00.934Z,33.33
2018-08-22T00:26:29.801Z,30.15
2018-08-22T00:28:58.620Z,31.97
2018-08-22T00:31:27.467Z,32.85
2018-08-22T00:33:56.316Z,33.35
2018-08-22T00:36:25.572Z,33.23
2018-08-22T00:38:54.397Z,30.97
2018-08-22T00:41:23.226Z,33.05
2018-08-22T00:43:52.080Z,36.53
2018-08-22T00:46:20.910Z,32.65
2018-08-22T00:48:49.713Z,32.13
2018-08-22T00:51:18.626Z,32.35
2018-08-22T00:53:47.485Z,30.30
2018-08-22T00:56:16.324Z,33.45
2018-08-22T00:58:45.183Z,38.98
2018-08-22T01:01:14.002Z,35.13
2018-08-22T01:03:42.903Z,33.73
2018-08-22T01:06:11.717Z,38.28
2018-08-22T01:08:40.556Z,35.58
2018-08-22T01:11:09.417Z,37.65
2018-08-22T01:13:38.250Z,34.50
2018-08-22T01:16:07.310Z,33.73
2018-08-22T01:18:36.186Z,37.65
2018-08-22T01:21:05.750Z,37.55
2018-08-22T01:23:34.941Z,38.85
2018-08-22T01:26:03.790Z,34.33
2018-08-22T01:28:32.650Z,35.35
2018-08-22T01:31:01.495Z,32.83
2018-08-22T01:33:30.331Z,35.20
2018-08-22T01:35:59.183Z,35.90
2018-08-22T01:38:28.022Z,36.45
2018-08-22T01:40:56.885Z,32.33
2018-08-22T01:43:26.746Z,34.95
2018-08-22T01:45:55.593Z,35.60
2018-08-22T01:48:24.400Z,32.35
2018-08-22T01:50:53.242Z,35.60
2018-08-22T01:53:22.073Z,35.52
2018-08-22T01:55:50.929Z,33.67
2018-08-22T01:58:19.787Z,38.35
2018-08-22T02:00:48.631Z,35.65
2018-08-22T02:03:17.503Z,35.70
2018-08-22T02:05:46.407Z,37.25
2018-08-22T02:08:15.234Z,36.50
2018-08-22T02:10:44.095Z,38.63
2018-08-22T02:13:13.586Z,38.60
2018-08-22T02:15:42.462Z,36.00
2018-08-22T02:18:11.291Z,36.03
2018-08-22T02:20:40.137Z,34.78
2018-08-22T02:23:08.979Z,40.33
2018-08-22T02:25:37.853Z,37.98
2018-08-22T02:28:06.673Z,37.33
2018-08-22T02:30:35.871Z,40.17
2018-08-22T02:33:04.737Z,36.50
2018-08-22T02:35:33.739Z,35.00
2018-08-22T02:38:02.603Z,37.80
2018-08-22T02:40:31.476Z,35.92
2018-08-22T02:43:00.434Z,37.20
2018-08-22T02:45:29.347Z,37.30
2018-08-22T02:47:58.209Z,40.28
2018-08-22T02:50:27.247Z,43.33
2018-08-22T02:52:56.110Z,38.63
2018-08-22T02:55:24.939Z,40.78
2018-08-22T02:57:53.783Z,40.78
2018-08-22T03:00:22.625Z,41.92
2018-08-22T03:02:51.455Z,44.45
2018-08-22T03:05:20.300Z,46.33
2018-08-22T03:07:49.130Z,46.25
2018-08-22T03:10:17.971Z,44.88
2018-08-22T03:12:46.786Z,45.98
2018-08-22T03:15:15.615Z,43.40
2018-08-22T03:17:44.487Z,46.08
2018-08-22T03:20:13.328Z,45.80
2018-08-22T03:22:42.437Z,43.00
2018-08-22T03:25:11.278Z,47.30
2018-08-22T03:27:40.126Z,46.92
2018-08-22T03:30:08.972Z,45.52
2018-08-22T03:32:37.832Z,48.95
2018-08-22T03:35:07.012Z,52.10
2018-08-22T03:37:35.836Z,47.35
2018-08-22T03:40:04.690Z,50.90
2018-08-22T03:42:33.518Z,52.48
2018-08-22T03:45:02.394Z,44.38
2018-08-22T03:47:31.213Z,48.40
2018-08-22T03:50:00.059Z,50.98
2018-08-22T03:52:28.886Z,51.18
2018-08-22T03:54:57.726Z,54.65
2018-08-22T03:57:26.547Z,54.18
2018-08-22T03:59:55.406Z,52.83
2018-08-22T04:02:24.250Z,53.68
2018-08-22T04:04:53.096Z,53.10
2018-08-22T04:07:21.959Z,53.40
2018-08-22T04:09:50.925Z,49.13
2018-08-22T04:12:19.839Z,55.00
2018-08-22T04:14:48.887Z,54.50
2018-08-22T04:17:17.767Z,58.48
2018-08-22T04:19:46.635Z,54.10
2018-08-22T04:22:16.033Z,62.15
2018-08-22T04:24:44.857Z,62.73
2018-08-22T04:27:13.727Z,58.02
2018-08-22T04:29:42.530Z,59.00
2018-08-22T04:32:11.368Z,59.63
2018-08-22T04:34:40.229Z,62.70
2018-08-22T04:37:09.068Z,55.75
2018-08-22T04:39:37.935Z,54.48
2018-08-22T04:42:06.783Z,64.55
2018-08-22T04:44:35.681Z,56.77
2018-08-22T04:47:04.927Z,60.48
2018-08-22T04:49:33.806Z,58.38
2018-08-22T04:52:02.740Z,58.45
2018-08-22T04:54:31.836Z,59.18
2018-08-22T04:57:00.770Z,64.35
2018-08-22T04:59:29.616Z,66.05
2018-08-22T05:01:58.212Z,65.60
2018-08-22T05:04:27.074Z,65.17
2018-08-22T05:06:55.987Z,65.70
2018-08-22T05:09:24.811Z,66.00
2018-08-22T05:11:53.664Z,63.52
2018-08-22T05:14:22.527Z,65.83
2018-08-22T05:16:51.379Z,59.00
2018-08-22T05:19:19.738Z,55.37
2018-08-22T05:21:48.664Z,63.42
2018-08-22T05:24:17.799Z,61.30
2018-08-22T05:26:46.628Z,59.88
2018-08-22T05:29:15.462Z,59.53
2018-08-22T05:31:44.340Z,59.23
2018-08-22T05:34:13.209Z,59.27
2018-08-22T05:36:42.084Z,63.30
2018-08-22T05:39:12.547Z,55.63
2018-08-22T05:41:41.983Z,52.62
2018-08-22T05:44:10.943Z,47.20
2018-08-22T05:46:39.823Z,49.83
2018-08-22T05:49:08.690Z,44.60
2018-08-22T05:51:37.742Z,41.28
2018-08-22T05:54:06.658Z,37.80
2018-08-22T05:56:35.595Z,42.75
2018-08-22T05:59:04.449Z,35.03
2018-08-22T06:01:33.048Z,40.33
2018-08-22T06:04:01.884Z,29.67
2018-08-22T06:06:32.356Z,31.17
2018-08-22T06:09:01.247Z,26.87
2018-08-22T06:11:30.450Z,31.20
2018-08-22T06:13:59.312Z,28.62
2018-08-22T06:16:28.151Z,21.25
2018-08-22T06:18:56.995Z,25.60
2018-08-22T06:21:25.873Z,22.95
2018-08-22T06:23:54.716Z,22.02
2018-08-22T06:26:23.568Z,21.62
2018-08-22T06:28:52.452Z,20.05
2018-08-22T06:31:21.290Z,20.00
2018-08-22T06:33:50.164Z,21.10
2018-08-22T06:36:19.036Z,21.93
2018-08-22T06:38:48.030Z,21.55
2018-08-22T06:41:16.919Z,17.25
2018-08-22T06:43:45.777Z,18.40
2018-08-22T06:46:14.785Z,16.27
2018-08-22T06:48:43.606Z,13.80
2018-08-22T06:51:12.507Z,16.62
2018-08-22T06:53:41.347Z,15.28
2018-08-22T06:56:10.223Z,17.00
2018-08-22T06:58:39.050Z,17.07
2018-08-22T07:01:07.356Z,12.45
2018-08-22T07:03:36.218Z,13.48
2018-08-22T07:06:05.115Z,13.15
2018-08-22T07:08:33.947Z,12.70
2018-08-22T07:11:02.810Z,15.43
2018-08-22T07:13:31.641Z,14.60
2018-08-22T07:16:00.467Z,13.10
2018-08-22T07:18:29.333Z,17.98
2018-08-22T07:20:58.209Z,11.68
2018-08-22T07:23:27.242Z,13.88
2018-08-22T07:25:56.089Z,12.23
2018-08-22T07:28:24.917Z,12.70
2018-08-22T07:30:53.770Z,14.03
2018-08-22T07:33:22.663Z,13.93
2018-08-22T07:35:51.595Z,13.85
2018-08-22T07:38:20.636Z,15.53
2018-08-22T07:40:49.503Z,16.30
2018-08-22T07:43:18.406Z,18.45
2018-08-22T07:45:47.449Z,14.70
2018-08-22T07:48:16.305Z,13.75
2018-08-22T07:50:45.172Z,13.43
2018-08-22T07:53:14.122Z,14.10
2018-08-22T07:55:43.459Z,14.20
2018-08-22T07:58:12.339Z,14.80
2018-08-22T08:00:41.582Z,17.57
2018-08-22T08:03:10.126Z,16.20
2018-08-22T08:05:39.005Z,16.70
2018-08-22T08:08:07.927Z,16.90
2018-08-22T08:10:37.430Z,16.23
2018-08-22T08:13:13.608Z,17.90
2018-08-22T08:15:42.749Z,17.50
2018-08-22T08:18:11.684Z,18.77
2018-08-22T08:20:40.816Z,18.42
2018-08-22T08:23:09.733Z,17.55
2018-08-22T08:25:38.628Z,17.55
2018-08-22T08:28:07.492Z,21.02
2018-08-22T08:30:36.420Z,20.08
2018-08-22T08:33:05.811Z,21.52
2018-08-22T08:35:34.928Z,20.50
2018-08-22T08:38:04.025Z,21.12
2018-08-22T08:40:32.867Z,22.48
2018-08-22T08:43:02.355Z,21.57
2018-08-22T08:45:31.223Z,20.92
2018-08-22T08:48:00.061Z,21.20
2018-08-22T08:50:29.003Z,20.75
2018-08-22T08:52:58.020Z,20.43
2018-08-22T08:55:26.892Z,19.35
2018-08-22T08:57:55.747Z,17.73
2018-08-22T09:00:24.760Z,18.82
2018-08-22T09:02:53.307Z,19.30
2018-08-22T09:05:22.268Z,18.27
2018-08-22T09:07:51.136Z,19.57
2018-08-22T09:10:20.005Z,18.25
2018-08-22T09:12:48.910Z,17.75
2018-08-22T09:15:17.741Z,17.48
2018-08-22T09:17:46.686Z,18.57
2018-08-22T09:20:15.696Z,14.70
2018-08-22T09:22:44.552Z,15.50
2018-08-22T09:25:13.359Z,15.28
2018-08-22T09:27:42.222Z,14.60
2018-08-22T09:30:11.072Z,12.98
2018-08-22T09:32:39.925Z,12.35
2018-08-22T09:35:08.770Z,13.08
2018-08-22T09:37:37.635Z,14.83
2018-08-22T09:40:06.510Z,14.73
2018-08-22T09:42:35.516Z,14.78
2018-08-22T09:45:04.571Z,13.75
2018-08-22T09:47:33.458Z,13.20
2018-08-22T09:50:02.353Z,13.50
2018-08-22T09:52:31.405Z,13.35
2018-08-22T09:55:01.764Z,13.45
2018-08-22T09:57:31.164Z,13.43
2018-08-22T10:00:00.106Z,12.60
2018-08-22T10:02:28.566Z,11.20
2018-08-22T10:04:58.781Z,12.30
2018-08-22T10:07:27.663Z,12.50
2018-08-22T10:09:56.684Z,12.25
2018-08-22T10:12:25.735Z,12.45
2018-08-22T10:14:54.594Z,12.68
2018-08-22T10:17:23.462Z,11.78
2018-08-22T10:19:52.504Z,13.05
2018-08-22T10:22:21.360Z,13.90
2018-08-22T10:24:50.248Z,12.90
2018-08-22T10:27:19.082Z,13.18
2018-08-22T10:29:47.937Z,14.50
2018-08-22T10:32:16.788Z,14.07
2018-08-22T10:34:45.671Z,13.30
2018-08-22T10:37:14.520Z,11.50
2018-08-22T10:39:43.093Z,10.27
2018-08-22T10:42:11.820Z,10.57
2018-08-22T10:44:40.397Z,10.60
2018-08-22T10:47:08.937Z,10.27
2018-08-22T10:49:37.501Z,8.43
2018-08-22T10:52:06.229Z,8.57
2018-08-22T10:54:35.009Z,10.43
2018-08-22T10:57:03.543Z,9.23
2018-08-22T10:59:32.623Z,9.27
2018-08-22T11:02:01.272Z,9.20
2018-08-22T11:04:29.943Z,10.13
2018-08-22T11:06:58.485Z,11.97
2018-08-22T11:09:27.315Z,12.05
2018-08-22T11:11:55.910Z,10.87
2018-08-22T11:14:24.743Z,10.15
2018-08-22T11:16:53.659Z,10.43
2018-08-22T11:19:22.188Z,9.37
2018-08-22T11:22:02.275Z,9.05
2018-08-22T11:24:42.004Z,12.73
2018-08-22T11:27:22.133Z,10.18
2018-08-22T11:30:01.940Z,10.47
2018-08-22T11:32:42.348Z,7.22
2018-08-22T11:35:10.171Z,6.50
2018-08-22T11:37:39.078Z,8.88
2018-08-22T11:40:07.904Z,7.08
2018-08-22T11:42:36.863Z,6.50
2018-08-22T11:45:05.683Z,6.33
2018-08-22T11:47:34.815Z,7.47
2018-08-22T11:50:03.691Z,6.28
2018-08-22T11:52:32.579Z,7.25
2018-08-22T11:55:01.447Z,6.75
2018-08-22T11:57:30.284Z,6.08
2018-08-22T11:59:59.132Z,5.75
2018-08-22T12:02:27.658Z,5.83
2018-08-22T12:04:56.200Z,7.50
2018-08-22T12:07:24.749Z,6.27
2018-08-22T12:09:53.678Z,6.45
2018-08-22T12:12:22.547Z,7.12
2018-08-22T12:14:51.427Z,6.20
2018-08-22T12:17:20.296Z,10.78
2018-08-22T12:19:49.144Z,7.25
2018-08-22T12:22:18.067Z,12.03
2018-08-22T12:24:46.933Z,6.83
2018-08-22T12:27:15.826Z,7.95
2018-08-22T12:29:44.614Z,7.90
2018-08-22T12:32:13.420Z,8.10
2018-08-22T12:34:42.260Z,7.40
2018-08-22T12:37:11.099Z,8.13
2018-08-22T12:39:40.260Z,8.28
2018-08-22T12:42:09.079Z,7.03
2018-08-22T12:44:37.977Z,6.37
2018-08-22T12:47:06.948Z,10.93
2018-08-22T12:49:35.798Z,7.12
2018-08-22T12:52:04.641Z,7.58
2018-08-22T12:54:33.171Z,9.60
2018-08-22T12:57:02.032Z,10.40
2018-08-22T12:59:31.637Z,7.93
2018-08-22T13:02:00.188Z,10.10
2018-08-22T13:04:29.100Z,7.97
2018-08-22T13:06:57.961Z,7.87
2018-08-22T13:09:26.783Z,9.23
2018-08-22T13:11:55.651Z,9.38
2018-08-22T13:14:24.500Z,6.90
2018-08-22T13:16:53.492Z,10.70
2018-08-22T13:22:15.900Z,9.48
2018-08-22T13:24:44.728Z,9.55
2018-08-22T13:27:13.857Z,10.23
2018-08-22T13:29:42.919Z,10.68
2018-08-22T13:32:11.727Z,12.33
2018-08-22T13:34:40.556Z,8.10
2018-08-22T13:37:09.092Z,10.33
2018-08-22T13:39:38.493Z,8.98
2018-08-22T13:42:07.223Z,10.40
2018-08-22T13:44:36.270Z,12.43
2018-08-22T13:47:04.808Z,11.00
2018-08-22T13:49:33.671Z,12.40
2018-08-22T13:52:02.301Z,12.30
2018-08-22T13:54:31.261Z,11.03
2018-08-22T13:57:00.493Z,12.78
2018-08-22T13:59:29.383Z,10.90
2018-08-22T14:01:57.957Z,11.93
2018-08-22T14:04:26.857Z,13.85
2018-08-22T14:06:55.720Z,12.68
2018-08-22T14:09:24.630Z,12.55
2018-08-22T14:11:53.828Z,12.58
2018-08-22T14:14:22.736Z,13.05
2018-08-22T14:16:51.666Z,9.93
2018-08-22T14:19:21.814Z,12.00
2018-08-22T14:21:50.722Z,10.65
2018-08-22T14:24:19.597Z,10.65
2018-08-22T14:26:48.491Z,14.05
2018-08-22T14:29:17.365Z,9.65
2018-08-22T14:31:46.264Z,11.60
2018-08-22T14:34:14.822Z,11.40
2018-08-22T14:36:43.752Z,11.45
2018-08-22T14:39:13.627Z,12.60
2018-08-22T14:41:43.218Z,24.70
2018-08-22T14:44:12.067Z,9.30
2018-08-22T14:46:40.962Z,10.75
2018-08-22T14:49:09.555Z,11.13
2018-08-22T14:51:38.224Z,11.40
2018-08-22T14:54:06.883Z,12.73
2018-08-22T14:56:35.923Z,14.18
2018-08-22T14:59:05.134Z,9.90
2018-08-22T15:01:33.737Z,10.57
2018-08-22T15:04:02.694Z,8.53
2018-08-22T15:06:31.312Z,9.67
2018-08-22T15:09:05.351Z,10.53
2018-08-22T15:11:35.640Z,11.03
2018-08-22T15:14:04.620Z,10.83
2018-08-22T15:16:33.234Z,12.60
2018-08-22T15:19:01.817Z,10.50
2018-08-22T15:21:30.407Z,8.63
2018-08-22T15:23:59.000Z,7.20
2018-08-22T15:26:27.577Z,9.27
2018-08-22T15:28:56.311Z,7.87
2018-08-22T15:31:24.942Z,8.37
2018-08-22T15:33:53.606Z,7.83
2018-08-22T15:36:22.828Z,7.73
2018-08-22T15:38:51.600Z,6.30
2018-08-22T15:41:20.221Z,9.93
2018-08-22T15:43:49.003Z,7.10
2018-08-22T15:46:17.607Z,8.13
2018-08-22T15:48:46.258Z,8.73
2018-08-22T15:51:15.116Z,7.10
2018-08-22T15:53:44.125Z,7.27
2018-08-22T15:56:12.725Z,8.10
2018-08-22T15:58:41.983Z,9.40
2018-08-22T16:01:10.756Z,6.60
2018-08-22T16:03:39.342Z,9.87
2018-08-22T16:06:08.264Z,6.80
2018-08-22T16:08:36.823Z,5.03
2018-08-22T16:11:07.645Z,6.73
2018-08-22T16:13:37.458Z,5.33
2018-08-22T16:16:06.032Z,6.73
2018-08-22T16:18:34.621Z,9.07
2018-08-22T16:21:04.781Z,6.13
2018-08-22T16:23:34.572Z,9.03
2018-08-22T16:26:04.696Z,6.90
2018-08-22T16:28:45.538Z,8.07
2018-08-22T16:31:14.151Z,6.73
2018-08-22T16:33:42.869Z,8.00
2018-08-22T16:36:15.710Z,7.20
2018-08-22T16:38:44.312Z,7.60
2018-08-22T16:41:12.868Z,9.17
2018-08-22T16:43:43.446Z,7.33
2018-08-22T16:46:14.221Z,7.53
2018-08-22T16:48:44.060Z,6.07
2018-08-22T16:51:12.666Z,5.90
2018-08-22T16:53:41.287Z,8.00
2018-08-22T16:56:09.839Z,8.47
2018-08-22T16:58:38.395Z,7.53
2018-08-22T17:01:06.688Z,7.55
2018-08-22T17:03:35.570Z,6.47
2018-08-22T17:06:09.901Z,7.03
2018-08-22T17:08:38.742Z,7.67
2018-08-22T17:11:08.286Z,7.45
2018-08-22T17:13:43.690Z,8.18
2018-08-22T17:16:12.583Z,7.17
2018-08-22T17:18:41.811Z,8.65
2018-08-22T17:21:10.994Z,7.85
2018-08-22T17:23:40.222Z,7.85
2018-08-22T17:26:11.847Z,8.83
2018-08-22T17:28:42.793Z,7.47
2018-08-22T17:31:12.411Z,8.23
2018-08-22T17:33:43.535Z,10.03
2018-08-22T17:36:12.967Z,8.58
2018-08-22T17:38:43.577Z,11.85
2018-08-22T17:41:12.740Z,8.18
2018-08-22T17:44:10.590Z,9.58
2018-08-22T17:46:42.538Z,10.00
2018-08-22T17:49:11.403Z,9.35
2018-08-22T17:52:05.067Z,13.53
2018-08-22T17:54:34.190Z,10.55
2018-08-22T17:57:15.370Z,10.82
2018-08-22T18:02:37.118Z,13.13
2018-08-22T18:05:06.368Z,13.32
2018-08-22T18:07:35.217Z,12.35
2018-08-22T18:10:04.142Z,13.40
2018-08-22T18:12:33.024Z,13.70
2018-08-22T18:15:03.107Z,13.32
2018-08-22T18:17:32.018Z,14.53
2018-08-22T18:20:01.228Z,15.35
2018-08-22T18:22:32.112Z,15.15
2018-08-22T18:25:08.100Z,14.60
2018-08-22T18:27:37.011Z,15.78
2018-08-22T18:30:09.093Z,15.28
2018-08-22T18:32:38.031Z,14.50
2018-08-22T18:35:10.037Z,14.93
2018-08-22T18:37:39.424Z,13.98
2018-08-22T18:40:17.624Z,17.20
2018-08-22T18:42:48.298Z,14.93
2018-08-22T18:45:17.593Z,14.30
2018-08-22T18:47:46.506Z,19.10
2018-08-22T18:50:15.400Z,15.10
2018-08-22T18:52:47.516Z,14.15
2018-08-22T18:55:16.790Z,15.93
2018-08-22T18:57:45.747Z,14.35
2018-08-22T19:00:14.684Z,13.85
2018-08-22T19:02:43.488Z,11.73
2018-08-22T19:05:23.496Z,11.63
2018-08-22T19:08:08.896Z,12.13
2018-08-22T19:10:39.104Z,11.73
2018-08-22T19:13:14.408Z,10.68
2018-08-22T19:15:46.976Z,11.63
2018-08-22T19:18:15.915Z,12.20
2018-08-22T19:20:44.862Z,13.03
2018-08-22T19:23:13.797Z,16.82
2018-08-22T19:25:45.296Z,11.53
2018-08-22T19:30:56.080Z,13.38
2018-08-22T19:33:26.145Z,14.80
2018-08-22T19:35:55.292Z,14.18
2018-08-22T19:38:25.705Z,14.35
2018-08-22T19:40:54.796Z,13.62
2018-08-22T19:43:23.783Z,14.13
2018-08-22T19:45:52.727Z,14.10
2018-08-22T19:48:22.018Z,13.08
2018-08-22T19:50:51.125Z,14.98
2018-08-22T19:53:20.082Z,15.65
2018-08-22T19:55:49.132Z,15.75
2018-08-22T19:58:28.161Z,16.37
2018-08-22T20:00:58.727Z,15.55
2018-08-22T20:03:31.932Z,16.62
2018-08-22T20:06:00.852Z,16.23
2018-08-22T20:08:36.659Z,14.80
2018-08-22T20:11:05.976Z,15.83
2018-08-22T20:13:47.232Z,18.80
2018-08-22T20:16:16.873Z,15.38
2018-08-22T20:18:48.072Z,17.23
2018-08-22T20:21:21.371Z,15.20
2018-08-22T20:23:51.714Z,17.80
2018-08-22T20:26:20.904Z,19.77
2018-08-22T20:28:52.835Z,19.48
2018-08-22T20:31:21.831Z,21.90
2018-08-22T20:34:02.703Z,20.20
2018-08-22T20:36:32.017Z,20.17
2018-08-22T20:39:07.138Z,19.90
2018-08-22T20:41:36.847Z,20.35
2018-08-22T20:44:09.604Z,22.95
2018-08-22T20:46:38.709Z,23.10
2018-08-22T20:49:07.786Z,25.10
2018-08-22T20:51:36.674Z,25.30
2018-08-22T20:54:10.857Z,24.90
2018-08-22T20:57:12.544Z,26.07
2018-08-22T20:59:41.630Z,25.92
2018-08-22T21:02:11.163Z,26.87
2018-08-22T21:04:40.507Z,27.42
2018-08-22T21:07:09.888Z,27.52
2018-08-22T21:09:38.864Z,28.15
2018-08-22T21:12:08.223Z,29.85
2018-08-22T21:14:37.281Z,30.37
2018-08-22T21:17:06.658Z,29.60
2018-08-22T21:19:36.293Z,29.40
2018-08-22T21:22:15.719Z,28.20
2018-08-22T21:24:45.123Z,30.75
2018-08-22T21:27:15.055Z,31.37
2018-08-22T21:29:44.467Z,31.45
2018-08-22T21:32:13.485Z,33.10
2018-08-22T21:34:42.508Z,32.38
2018-08-22T21:37:21.070Z,34.25
2018-08-22T21:39:50.345Z,34.00
2018-08-22T21:42:24.517Z,34.88
2018-08-22T21:44:53.528Z,34.10
2018-08-22T21:47:22.383Z,35.28
2018-08-22T21:49:51.415Z,38.05
2018-08-22T21:52:20.366Z,37.83
2018-08-22T21:54:49.404Z,40.05
2018-08-22T21:57:18.510Z,43.02
2018-08-22T21:59:55.494Z,42.98
2018-08-22T22:02:24.445Z,41.85
2018-08-22T22:04:53.500Z,43.90
2018-08-22T22:07:22.509Z,48.33
2018-08-22T22:09:52.032Z,48.40
2018-08-22T22:12:26.273Z,46.68
2018-08-22T22:14:55.221Z,49.77
2018-08-22T22:17:24.888Z,51.23
2018-08-22T22:19:53.829Z,50.55
2018-08-22T22:22:22.740Z,55.43
2018-08-22T22:24:56.960Z,51.35
2018-08-22T22:27:26.061Z,50.80
2018-08-22T22:30:00.432Z,52.05
2018-08-22T22:32:29.535Z,52.65
2018-08-22T22:34:58.456Z,50.55
2018-08-22T22:37:27.571Z,49.95
2018-08-22T22:39:56.511Z,52.58
2018-08-22T22:42:26.532Z,46.45
2018-08-22T22:44:57.055Z,51.25
2018-08-22T22:47:30.173Z,51.28
2018-08-22T22:49:59.798Z,50.73
2018-08-22T22:52:31.347Z,54.08
2018-08-22T22:55:02.409Z,52.33
2018-08-22T22:57:32.634Z,57.95
2018-08-22T23:00:04.423Z,50.45
2018-08-22T23:02:33.823Z,52.35
2018-08-22T23:05:02.969Z,54.40
2018-08-22T23:07:33.812Z,52.45
2018-08-22T23:10:06.717Z,52.53
2018-08-22T23:12:38.614Z,51.00
2018-08-22T23:15:12.563Z,52.20
2018-08-22T23:17:41.883Z,55.17
2018-08-22T23:23:21.734Z,55.60
2018-08-22T23:25:50.809Z,51.18
2018-08-22T23:28:19.711Z,52.93
2018-08-22T23:30:49.012Z,54.80
2018-08-22T23:33:18.040Z,58.35
2018-08-22T23:35:46.935Z,54.53
2018-08-22T23:38:21.222Z,50.67
2018-08-22T23:40:50.111Z,51.80
2018-08-22T23:43:19.009Z,56.68
2018-08-22T23:45:53.211Z,53.13
2018-08-22T23:48:27.579Z,52.38
2018-08-22T23:50:57.591Z,54.18
2018-08-22T23:53:47.259Z,49.98
2018-08-22T23:56:26.707Z,48.25
2018-08-22T23:58:56.209Z,50.00
